Time;durP1;ratioP1;P1;durP2;ratioP2;P2;SDS_P1;SDS_P2;PMS_P1;PMS_P2;Temp;Humidity;BMP_temperature;BMP_pressure;BME280_temperature;BME280_humidity;BME280_pressure;Samples;Min_cycle;Max_cycle;Signal;HPM_P1;HPM_P2
2022/08/26 00:00:43;;;;;;;7.93;3.80;;;;;;;23.94;76.02;101148.19;6223717;28;20061;-77
2022/08/26 00:03:44;;;;;;;8.15;3.72;;;;;;;23.91;75.96;101143.13;6223552;28;20559;-78
2022/08/26 00:06:46;;;;;;;7.40;4.43;;;;;;;23.89;76.08;101145.09;6223704;28;20061;-78
2022/08/26 00:09:49;;;;;;;6.35;3.85;;;;;;;23.86;76.35;101143.59;6223819;28;20056;-77
2022/08/26 00:12:51;;;;;;;7.28;3.85;;;;;;;23.83;76.63;101137.69;6224051;28;20054;-78
2022/08/26 00:15:52;;;;;;;8.43;3.60;;;;;;;23.79;77.13;101134.47;6223799;28;20060;-78
2022/08/26 00:18:54;;;;;;;8.93;4.32;;;;;;;23.76;77.03;101143.72;6223610;28;20045;-78
2022/08/26 00:21:55;;;;;;;7.22;3.88;;;;;;;23.74;77.47;101142.16;6223845;28;20054;-78
2022/08/26 00:24:58;;;;;;;5.88;3.83;;;;;;;23.72;77.45;101141.50;6223198;28;20058;-78
2022/08/26 00:27:59;;;;;;;5.60;4.10;;;;;;;23.70;77.56;101136.25;6222985;28;20046;-78
2022/08/26 00:31:01;;;;;;;9.02;3.53;;;;;;;23.67;78.03;101138.44;6223262;28;20192;-77
2022/08/26 00:34:03;;;;;;;7.60;3.90;;;;;;;23.63;78.21;101132.50;6222940;28;20501;-78
2022/08/26 00:37:04;;;;;;;8.10;4.18;;;;;;;23.56;78.65;101126.06;6223584;28;20421;-78
2022/08/26 00:40:11;;;;;;;6.85;4.15;;;;;;;23.52;78.81;101124.72;6223452;28;20469;-78
2022/08/26 00:43:14;;;;;;;5.75;3.60;;;;;;;23.48;79.24;101118.84;6223627;28;20061;-78
2022/08/26 00:46:20;;;;;;;6.43;3.83;;;;;;;23.44;79.22;101127.34;6222937;28;20053;-78
2022/08/26 00:49:35;;;;;;;6.15;4.32;;;;;;;23.42;79.89;101129.34;6223298;28;20092;-78
2022/08/26 00:52:37;;;;;;;12.02;4.20;;;;;;;23.40;79.72;101123.28;6226540;28;20466;-78
2022/08/26 00:55:41;;;;;;;8.30;4.72;;;;;;;23.35;80.16;101131.81;6227005;28;20413;-78
2022/08/26 00:58:44;;;;;;;8.00;4.70;;;;;;;23.34;80.23;101118.53;6227504;28;20049;-78
2022/08/26 01:01:45;;;;;;;8.98;4.28;;;;;;;23.29;80.90;101127.88;6227059;28;20046;-78
2022/08/26 01:04:48;;;;;;;9.88;4.57;;;;;;;23.26;81.02;101122.84;6226975;28;20049;-78
2022/08/26 01:07:50;;;;;;;7.57;4.43;;;;;;;23.24;81.27;101127.50;6227553;28;20054;-78
2022/08/26 01:10:54;;;;;;;12.38;4.40;;;;;;;23.22;81.51;101132.19;6226713;28;20061;-78
2022/08/26 01:13:58;;;;;;;11.35;4.38;;;;;;;23.20;81.62;101122.63;6227120;28;20057;-78
2022/08/26 01:17:02;;;;;;;5.57;3.85;;;;;;;23.15;81.99;101119.56;6226873;28;20687;-78
2022/08/26 01:20:12;;;;;;;5.97;3.92;;;;;;;23.12;82.37;101123.41;6226010;28;20058;-79
2022/08/26 01:23:15;;;;;;;7.55;4.55;;;;;;;23.12;82.33;101122.53;6230179;28;20057;-80
2022/08/26 01:26:20;;;;;;;6.07;4.20;;;;;;;23.10;82.34;101120.03;6242185;28;20057;-79
2022/08/26 01:29:22;;;;;;;7.43;4.20;;;;;;;23.04;82.82;101126.00;6247902;28;20038;-80
2022/08/26 01:32:24;;;;;;;10.95;4.78;;;;;;;23.04;82.73;101131.38;6248145;28;20060;-80
2022/08/26 01:35:26;;;;;;;7.22;4.35;;;;;;;22.99;83.30;101131.84;6255572;28;20042;-80
2022/08/26 01:38:29;;;;;;;15.00;5.25;;;;;;;22.96;83.51;101123.25;6240083;28;20054;-80
2022/08/26 01:41:31;;;;;;;11.25;5.07;;;;;;;22.89;84.27;101122.13;6233077;28;20129;-81
2022/08/26 01:44:36;;;;;;;7.82;4.63;;;;;;;22.87;84.67;101129.50;6232988;28;20050;-80
2022/08/26 01:47:38;;;;;;;7.60;4.28;;;;;;;22.84;84.83;101130.63;6231954;28;20110;-80
2022/08/26 01:50:40;;;;;;;8.30;4.55;;;;;;;22.82;85.21;101132.63;6232301;28;20410;-80
2022/08/26 01:53:44;;;;;;;7.40;4.68;;;;;;;22.78;85.50;101128.56;6240854;28;20053;-81
2022/08/26 01:56:46;;;;;;;7.05;4.43;;;;;;;22.74;85.84;101130.69;6249456;28;20049;-78
2022/08/26 01:59:50;;;;;;;6.45;4.40;;;;;;;22.72;86.02;101118.47;6257389;28;20431;-81
2022/08/26 02:03:15;;;;;;;7.05;4.43;;;;;;;22.69;86.05;101127.63;6256682;28;20077;-80
2022/08/26 02:06:17;;;;;;;11.52;4.65;;;;;;;22.64;86.25;101127.25;6257161;28;20538;-80
2022/08/26 02:09:20;;;;;;;5.95;4.25;;;;;;;22.62;86.94;101131.06;6256677;28;20052;-80
2022/08/26 02:12:22;;;;;;;6.43;4.13;;;;;;;22.60;87.10;101125.03;6256282;28;20064;-81
2022/08/26 02:15:24;;;;;;;7.63;4.68;;;;;;;22.56;87.34;101121.78;6256959;28;20042;-81
2022/08/26 02:18:29;;;;;;;8.00;4.60;;;;;;;22.52;87.86;101123.91;6256637;28;20049;-80
2022/08/26 02:21:30;;;;;;;5.03;3.97;;;;;;;22.49;87.97;101123.41;6248083;28;20049;-81
2022/08/26 02:24:48;;;;;;;9.30;4.55;;;;;;;22.49;88.21;101126.09;6232226;28;20520;-80
2022/08/26 02:27:50;;;;;;;14.35;5.45;;;;;;;22.45;88.39;101120.19;6232748;28;20050;-80
2022/08/26 02:30:52;;;;;;;12.20;5.32;;;;;;;22.43;88.79;101116.78;6244438;28;20052;-80
2022/08/26 02:33:53;;;;;;;8.10;4.82;;;;;;;22.41;88.82;101124.13;6256260;28;20046;-80
2022/08/26 02:36:56;;;;;;;8.25;4.25;;;;;;;22.37;89.26;101116.56;6256227;28;20501;-80
2022/08/26 02:39:59;;;;;;;6.78;4.85;;;;;;;22.35;89.69;101121.22;6255033;28;20053;-80
2022/08/26 02:43:00;;;;;;;7.97;4.82;;;;;;;22.34;89.88;101116.84;6256057;28;20053;-80
2022/08/26 02:46:02;;;;;;;13.88;5.78;;;;;;;22.28;90.41;101110.25;6254792;28;20050;-80
2022/08/26 02:49:03;;;;;;;12.18;5.20;;;;;;;22.24;90.40;101108.88;6255611;28;20049;-80
2022/08/26 02:52:05;;;;;;;8.60;5.20;;;;;;;22.21;90.40;101104.66;6256288;28;20053;-80
2022/08/26 02:55:08;;;;;;;16.38;4.78;;;;;;;22.18;91.24;101106.78;6256301;28;20072;-80
2022/08/26 02:58:10;;;;;;;10.88;4.57;;;;;;;22.16;91.51;101104.25;6256191;28;20046;-80
2022/08/26 03:01:20;;;;;;;9.05;5.47;;;;;;;22.14;91.95;101105.41;6255297;28;20065;-80
2022/08/26 03:04:21;;;;;;;9.20;5.30;;;;;;;22.10;92.08;101107.50;6255811;28;20049;-80
2022/08/26 03:07:23;;;;;;;8.95;4.47;;;;;;;22.07;92.71;101101.59;6255368;28;20049;-80
2022/08/26 03:10:26;;;;;;;10.55;5.32;;;;;;;22.04;93.17;101098.22;6255009;28;20056;-81
2022/08/26 03:13:27;;;;;;;13.25;6.20;;;;;;;22.01;93.51;101100.34;6255555;28;20053;-80
2022/08/26 03:16:31;;;;;;;12.75;4.75;;;;;;;22.00;93.43;101098.66;6254465;28;20055;-80
2022/08/26 03:19:32;;;;;;;9.65;5.05;;;;;;;21.99;93.50;101099.66;6255250;28;20053;-80
2022/08/26 03:22:34;;;;;;;7.00;4.65;;;;;;;21.96;94.00;101090.09;6255548;28;20045;-80
2022/08/26 03:25:36;;;;;;;9.68;5.28;;;;;;;21.93;94.35;101089.53;6255063;28;20053;-81
2022/08/26 03:30:38;;;;;;;8.30;5.07;;;;;;;21.92;94.43;101091.38;6255606;28;20045;-81
2022/08/26 03:32:00;;;;;;;14.98;5.35;;;;;;;21.91;94.44;101084.34;6254849;28;20045;-80
2022/08/26 03:35:01;;;;;;;7.72;4.90;;;;;;;21.88;94.79;101089.97;6255751;28;20053;-80
2022/08/26 03:38:03;;;;;;;11.30;5.18;;;;;;;21.84;95.23;101085.06;6256173;28;20485;-81
2022/08/26 03:41:08;;;;;;;10.60;5.25;;;;;;;21.84;95.38;101090.41;6255656;28;20046;-80
2022/08/26 03:44:09;;;;;;;12.68;5.60;;;;;;;21.83;95.82;101094.09;6255196;28;20052;-80
2022/08/26 03:47:11;;;;;;;12.55;5.38;;;;;;;21.79;95.81;101091.69;6254600;28;20049;-80
2022/08/26 03:50:14;;;;;;;8.73;5.13;;;;;;;21.77;96.01;101095.50;6254676;28;20132;-80
2022/08/26 03:53:16;;;;;;;12.88;5.07;;;;;;;21.76;96.43;101099.19;6254373;28;20055;-80
2022/08/26 03:56:18;;;;;;;9.32;5.47;;;;;;;21.72;96.79;101100.47;6255034;28;20053;-80
2022/08/26 03:59:20;;;;;;;11.02;5.15;;;;;;;21.66;97.87;101090.31;6255922;28;20049;-80
2022/08/26 04:02:21;;;;;;;11.75;5.57;;;;;;;21.65;98.12;101091.31;6255489;28;20056;-81
2022/08/26 04:05:23;;;;;;;11.32;5.45;;;;;;;21.66;97.92;101088.50;6254905;28;20056;-80
2022/08/26 04:08:24;;;;;;;7.68;5.07;;;;;;;21.68;98.10;101086.53;6254798;28;20057;-80
2022/08/26 04:11:30;;;;;;;10.50;5.30;;;;;;;21.71;98.37;101083.56;6254870;28;20041;-80
2022/08/26 04:14:34;;;;;;;8.48;4.90;;;;;;;21.73;98.05;101081.56;6254622;28;20053;-80
2022/08/26 04:17:35;;;;;;;7.45;5.10;;;;;;;21.75;98.11;101084.09;6254592;28;20049;-80
2022/08/26 04:20:36;;;;;;;10.75;6.03;;;;;;;21.75;98.13;101079.59;6254453;28;20065;-80
2022/08/26 04:23:39;;;;;;;8.68;4.90;;;;;;;21.74;98.15;101074.41;6254724;28;20053;-80
2022/08/26 04:26:43;;;;;;;18.70;5.45;;;;;;;21.75;98.10;101070.72;6256337;28;20049;-80
2022/08/26 04:29:45;;;;;;;14.55;5.65;;;;;;;21.74;98.25;101085.09;6259514;28;20475;-80
2022/08/26 04:32:47;;;;;;;10.65;5.30;;;;;;;21.73;98.57;101088.78;6260428;28;20049;-80
2022/08/26 04:35:48;;;;;;;10.23;5.63;;;;;;;21.73;98.87;101084.25;6259882;28;20046;-80
2022/08/26 04:38:50;;;;;;;8.77;5.20;;;;;;;21.73;98.99;101083.41;6260245;28;20046;-80
2022/08/26 04:41:54;;;;;;;6.55;4.82;;;;;;;21.70;99.34;101084.53;6258700;28;20564;-80
2022/08/26 04:44:55;;;;;;;7.03;4.90;;;;;;;21.71;100.00;101083.56;6259563;28;20140;-80
2022/08/26 04:47:56;;;;;;;11.07;5.40;;;;;;;21.73;99.81;101088.78;6259907;28;20053;-80
2022/08/26 04:50:58;;;;;;;8.68;5.20;;;;;;;21.75;99.37;101090.28;6257843;28;20052;-80
2022/08/26 04:54:00;;;;;;;11.35;5.43;;;;;;;21.72;99.55;101085.25;6259131;28;20056;-81
2022/08/26 04:57:02;;;;;;;10.13;5.32;;;;;;;21.69;99.91;101096.22;6260936;28;20053;-81
2022/08/26 05:00:06;;;;;;;12.43;5.28;;;;;;;21.68;100.00;101091.03;6258095;28;20049;-80
2022/08/26 05:03:07;;;;;;;9.63;5.28;;;;;;;21.68;100.00;101083.84;6257500;28;20151;-81
2022/08/26 05:06:11;;;;;;;9.18;5.50;;;;;;;21.69;100.00;101090.03;6247143;28;20050;-81
2022/08/26 05:09:13;;;;;;;10.77;5.32;;;;;;;21.73;100.00;101091.44;6241887;28;20072;-80
2022/08/26 05:12:16;;;;;;;9.95;5.82;;;;;;;21.73;100.00;101094.97;6235727;28;20042;-80
2022/08/26 05:15:17;;;;;;;10.80;5.53;;;;;;;21.73;100.00;101094.13;6234698;28;20061;-80
2022/08/26 05:18:21;;;;;;;9.35;5.13;;;;;;;21.73;100.00;101088.78;6241748;28;20050;-81
2022/08/26 05:21:25;;;;;;;11.90;5.47;;;;;;;21.74;100.00;101088.59;6235929;28;20069;-81
2022/08/26 05:24:26;;;;;;;9.98;4.80;;;;;;;21.82;100.00;101098.59;6247535;28;20037;-80
2022/08/26 05:27:29;;;;;;;14.32;5.85;;;;;;;21.84;100.00;101099.28;6253579;28;20053;-80
2022/08/26 05:30:31;;;;;;;11.18;5.05;;;;;;;21.91;100.00;101086.16;6247157;28;20041;-80
2022/08/26 05:33:32;;;;;;;11.93;4.78;;;;;;;21.94;100.00;101089.41;6246264;28;20118;-80
2022/08/26 05:36:35;;;;;;;9.45;4.50;;;;;;;21.99;100.00;101094.31;6248879;28;20056;-80
2022/08/26 05:39:37;;;;;;;8.38;5.40;;;;;;;22.02;100.00;101102.88;6246931;28;20045;-80
2022/08/26 05:42:40;;;;;;;11.45;5.22;;;;;;;22.08;100.00;101104.13;6256947;28;20513;-81
2022/08/26 05:45:43;;;;;;;11.45;5.35;;;;;;;22.15;100.00;101107.06;6235833;28;20122;-81
2022/08/26 05:48:45;;;;;;;9.75;4.30;;;;;;;22.18;100.00;101106.78;6244996;28;20493;-79
2022/08/26 05:51:47;;;;;;;15.40;5.13;;;;;;;22.20;100.00;101105.63;6241825;28;20636;-80
2022/08/26 05:54:48;;;;;;;9.73;5.25;;;;;;;22.25;100.00;101106.03;6251381;28;20073;-80
2022/08/26 05:57:51;;;;;;;7.28;5.07;;;;;;;22.27;100.00;101106.75;6248292;28;20053;-79
2022/08/26 06:01:01;;;;;;;6.93;4.57;;;;;;;22.31;100.00;101104.63;6235958;28;20139;-79
2022/08/26 06:04:03;;;;;;;12.55;4.72;;;;;;;22.35;100.00;101097.13;6233046;28;20041;-79
2022/08/26 06:07:04;;;;;;;11.57;5.30;;;;;;;22.36;100.00;101098.81;6232438;28;20099;-78
2022/08/26 06:10:07;;;;;;;17.15;5.20;;;;;;;22.35;100.00;101095.28;6245174;28;20045;-80
2022/08/26 06:13:10;;;;;;;10.98;4.55;;;;;;;22.36;100.00;101090.78;6249930;28;20180;-80
2022/08/26 06:16:14;;;;;;;10.43;4.63;;;;;;;22.40;100.00;101094.84;6251550;28;20509;-80
2022/08/26 06:19:16;;;;;;;11.38;4.72;;;;;;;22.43;100.00;101091.84;6251779;28;20045;-80
2022/08/26 06:25:38;;;;;;;13.38;5.28;;;;;;;22.50;100.00;101091.09;6250432;28;20136;-80
2022/08/26 06:28:41;;;;;;;10.57;4.60;;;;;;;22.52;100.00;101093.63;6252774;28;20052;-80
2022/08/26 06:31:42;;;;;;;9.48;4.50;;;;;;;22.56;100.00;101091.47;6251130;28;20548;-80
2022/08/26 06:34:44;;;;;;;9.23;5.15;;;;;;;22.61;99.85;101089.19;6250965;28;20049;-80
2022/08/26 06:37:45;;;;;;;9.95;3.95;;;;;;;22.66;100.00;101097.63;6251190;28;20059;-80
2022/08/26 06:40:48;;;;;;;10.43;4.80;;;;;;;22.69;100.00;101090.13;6251589;28;20057;-80
2022/08/26 06:43:51;;;;;;;11.77;5.00;;;;;;;22.73;100.00;101087.97;6250537;28;20052;-80
2022/08/26 06:46:53;;;;;;;10.63;4.75;;;;;;;22.79;99.95;101087.38;6251180;28;20056;-80
2022/08/26 06:49:54;;;;;;;10.98;4.68;;;;;;;22.85;99.59;101092.13;6250590;28;20050;-80
2022/08/26 06:52:55;;;;;;;8.73;4.35;;;;;;;22.88;99.30;101086.44;6251241;28;20049;-80
2022/08/26 06:55:57;;;;;;;12.15;4.28;;;;;;;22.94;98.65;101093.94;6251059;28;20046;-78
2022/08/26 06:58:59;;;;;;;12.40;4.53;;;;;;;23.00;98.65;101104.03;6250543;28;20151;-78
2022/08/26 07:02:01;;;;;;;11.60;4.50;;;;;;;23.04;97.31;101105.41;6259411;28;20057;-80
2022/08/26 07:05:02;;;;;;;11.82;4.97;;;;;;;23.09;97.09;101104.09;6256567;28;20412;-80
2022/08/26 07:08:04;;;;;;;7.00;3.90;;;;;;;23.10;97.50;101106.63;6258323;28;20060;-78
2022/08/26 07:11:07;;;;;;;10.10;4.10;;;;;;;23.12;97.86;101112.69;6257227;28;20050;-80
2022/08/26 07:14:10;;;;;;;14.05;5.00;;;;;;;23.17;97.71;101114.91;6259708;28;20053;-80
2022/08/26 07:17:11;;;;;;;10.68;4.63;;;;;;;23.19;97.73;101111.06;6258210;28;20080;-80
2022/08/26 07:20:13;;;;;;;9.82;4.78;;;;;;;23.21;98.09;101117.13;6258435;28;20512;-80
2022/08/26 07:23:14;;;;;;;6.50;3.92;;;;;;;23.24;98.02;101126.66;6253868;28;20053;-79
2022/08/26 07:26:19;;;;;;;10.50;4.30;;;;;;;23.28;97.30;101125.38;6249393;28;20673;-79
2022/08/26 07:29:22;;;;;;;8.77;4.30;;;;;;;23.34;96.13;101131.94;6248434;28;20049;-79
2022/08/26 07:32:23;;;;;;;6.53;4.30;;;;;;;23.40;95.53;101131.34;6248362;28;20536;-79
2022/08/26 07:35:25;;;;;;;12.00;4.13;;;;;;;23.43;95.44;101129.16;6248794;28;20049;-79
2022/08/26 07:38:26;;;;;;;13.10;4.30;;;;;;;23.47;94.88;101127.84;6249561;28;20057;-79
2022/08/26 07:41:28;;;;;;;10.98;4.43;;;;;;;23.62;94.81;101125.47;6236136;28;20042;-80
2022/08/26 07:44:31;;;;;;;13.38;4.65;;;;;;;23.63;94.36;101135.19;6238556;28;20056;-79
2022/08/26 07:47:33;;;;;;;9.00;4.25;;;;;;;23.67;94.06;101133.91;6249314;28;20489;-79
2022/08/26 07:50:34;;;;;;;8.27;4.82;;;;;;;23.71;93.15;101135.28;6232922;28;20049;-79
2022/08/26 07:53:36;;;;;;;8.00;3.92;;;;;;;23.80;91.44;101136.19;6233057;28;20068;-79
2022/08/26 07:56:38;;;;;;;10.40;4.22;;;;;;;23.83;90.95;101133.16;6229797;28;20051;-77
2022/08/26 07:59:41;;;;;;;8.23;4.18;;;;;;;23.88;90.63;101143.44;6241851;28;20052;-78
2022/08/26 08:02:43;;;;;;;6.18;3.88;;;;;;;23.94;90.19;101134.75;6235194;28;20057;-79
2022/08/26 08:05:45;;;;;;;11.02;4.57;;;;;;;24.02;89.78;101132.94;6239520;28;20057;-81
2022/08/26 08:08:46;;;;;;;10.88;4.75;;;;;;;24.13;89.06;101131.81;6255491;28;20049;-77
2022/08/26 08:11:49;;;;;;;8.82;4.20;;;;;;;24.19;88.35;101124.97;6249474;28;20046;-81
2022/08/26 08:14:52;;;;;;;8.27;4.35;;;;;;;24.24;88.17;101120.78;6230432;28;20168;-80
2022/08/26 08:17:54;;;;;;;6.53;3.55;;;;;;;24.30;87.64;101125.53;6231814;28;20061;-77
2022/08/26 08:20:55;;;;;;;5.60;3.55;;;;;;;24.39;86.53;101125.56;6231476;28;20698;-78
2022/08/26 08:23:58;;;;;;;12.95;4.88;;;;;;;24.44;86.33;101125.94;6230789;28;20053;-80
2022/08/26 08:27:02;;;;;;;12.13;4.47;;;;;;;24.47;87.11;101123.75;6230692;28;20060;-80
2022/08/26 08:30:06;;;;;;;10.77;4.38;;;;;;;24.50;86.91;101123.44;6230009;28;20548;-80
2022/08/26 08:33:08;;;;;;;11.18;4.47;;;;;;;24.56;86.23;101121.94;6231163;28;20077;-77
2022/08/26 08:36:09;;;;;;;14.68;4.60;;;;;;;24.61;85.35;101124.97;6230384;28;20054;-79
2022/08/26 08:39:11;;;;;;;6.07;4.05;;;;;;;24.69;84.99;101118.78;6230513;28;20060;-77
2022/08/26 08:42:32;;;;;;;10.05;4.15;;;;;;;24.73;84.24;101120.97;6230176;28;20050;-78
2022/08/26 08:45:37;;;;;;;9.13;3.70;;;;;;;24.74;83.73;101113.75;6230587;28;20054;-80
2022/08/26 08:48:43;;;;;;;10.75;3.97;;;;;;;24.84;82.09;101122.50;6231319;28;20054;-80
2022/08/26 08:51:50;;;;;;;9.93;3.47;;;;;;;24.95;80.81;101118.66;6231089;28;20057;-81
2022/08/26 08:54:51;;;;;;;5.82;3.67;;;;;;;24.98;80.83;101115.63;6230121;28;20049;-80
2022/08/26 08:58:02;;;;;;;9.73;4.03;;;;;;;25.04;80.40;101114.97;6231518;28;20042;-80
2022/08/26 09:01:11;;;;;;;10.70;4.47;;;;;;;25.14;80.21;101118.38;6230765;28;20046;-78
2022/08/26 09:04:24;;;;;;;10.77;3.80;;;;;;;25.15;79.24;101117.34;6230702;28;20096;-79
2022/08/26 09:07:31;;;;;;;9.20;3.20;;;;;;;25.19;78.43;101117.84;6231040;28;20050;-79
2022/08/26 09:10:35;;;;;;;7.88;3.88;;;;;;;25.26;78.55;101117.03;6231131;28;20068;-79
2022/08/26 09:13:38;;;;;;;5.53;3.60;;;;;;;25.32;78.25;101111.97;6228225;28;20092;-79
2022/08/26 09:16:50;;;;;;;13.05;3.70;;;;;;;25.46;77.20;101116.66;6226993;28;20056;-78
2022/08/26 09:19:54;;;;;;;7.90;3.50;;;;;;;25.55;76.32;101115.66;6226912;28;20412;-78
2022/08/26 09:22:56;;;;;;;9.48;3.78;;;;;;;25.61;74.03;101108.72;6227225;28;20136;-79
2022/08/26 09:26:00;;;;;;;7.55;4.57;;;;;;;25.70;74.04;101111.22;6226216;28;20053;-79
2022/08/26 09:29:07;;;;;;;5.22;3.38;;;;;;;25.74;75.08;101106.34;6226320;28;20061;-79
2022/08/26 09:32:20;;;;;;;11.13;4.95;;;;;;;25.74;74.38;101101.81;6225579;28;20501;-80
2022/08/26 09:35:25;;;;;;;6.10;3.67;;;;;;;25.89;72.09;101115.44;6226518;28;20045;-79
2022/08/26 09:38:32;;;;;;;6.20;3.85;;;;;;;25.92;72.54;101111.56;6226766;28;20050;-79
2022/08/26 09:41:34;;;;;;;9.65;4.18;;;;;;;25.99;72.62;101110.69;6225570;28;20046;-79
2022/08/26 09:44:55;;;;;;;8.98;4.00;;;;;;;26.10;72.69;101106.78;6225341;28;20042;-80
2022/08/26 09:48:00;;;;;;;9.05;3.45;;;;;;;26.15;71.30;101107.09;6225877;28;20049;-79
2022/08/26 09:51:03;;;;;;;10.25;4.03;;;;;;;26.16;70.72;101106.09;6225182;28;20046;-80
2022/08/26 09:54:04;;;;;;;8.68;3.90;;;;;;;26.27;70.24;101105.69;6225876;28;20069;-79
2022/08/26 09:57:18;;;;;;;6.65;3.50;;;;;;;26.33;70.54;101108.69;6227886;28;20065;-80
2022/08/26 10:00:29;;;;;;;8.70;4.47;;;;;;;26.33;70.97;101100.63;6225155;28;20053;-79
2022/08/26 10:03:35;;;;;;;11.68;4.05;;;;;;;26.38;70.62;101093.66;6225150;28;20050;-80
2022/08/26 10:06:40;;;;;;;14.25;4.50;;;;;;;26.46;69.24;101098.22;6225263;28;20056;-80
2022/08/26 10:09:43;;;;;;;9.43;4.30;;;;;;;26.51;68.35;101090.44;6225196;28;20050;-79
2022/08/26 10:12:51;;;;;;;8.68;4.20;;;;;;;26.46;69.47;101084.75;6225332;28;20042;-79
2022/08/26 10:16:00;;;;;;;8.88;5.35;;;;;;;26.50;69.54;101080.69;6225008;28;20061;-80
2022/08/26 10:19:11;;;;;;;9.27;4.75;;;;;;;26.55;69.62;101071.03;6225125;28;20056;-79
2022/08/26 10:22:18;;;;;;;9.18;4.55;;;;;;;26.53;70.04;101072.25;6224476;28;20042;-79
2022/08/26 10:25:24;;;;;;;13.02;4.35;;;;;;;26.59;68.86;101073.38;6223931;28;20498;-80
2022/08/26 10:28:35;;;;;;;6.97;3.85;;;;;;;26.62;69.46;101075.72;6225391;28;20054;-79
2022/08/26 10:31:40;;;;;;;12.32;4.38;;;;;;;26.62;69.13;101073.88;6224490;28;20061;-79
2022/08/26 10:34:44;;;;;;;11.63;4.55;;;;;;;26.75;68.77;101065.16;6226329;28;20065;-79
2022/08/26 10:37:48;;;;;;;7.32;3.92;;;;;;;26.78;67.55;101068.34;6224137;28;20050;-80
2022/08/26 10:40:58;;;;;;;9.43;3.83;;;;;;;26.86;67.49;101066.63;6224205;28;20048;-80
2022/08/26 10:44:05;;;;;;;6.30;3.63;;;;;;;26.96;66.92;101065.34;6224528;28;20053;-79
2022/08/26 10:47:15;;;;;;;7.43;3.55;;;;;;;27.11;66.02;101057.31;6224546;28;20061;-79
2022/08/26 10:50:20;;;;;;;8.23;4.15;;;;;;;27.35;64.59;101058.97;6224306;28;20500;-80
2022/08/26 10:53:30;;;;;;;8.48;4.20;;;;;;;27.50;63.20;101059.81;6223543;28;20042;-79
2022/08/26 10:56:43;;;;;;;11.77;4.00;;;;;;;27.61;63.16;101050.41;6223788;28;20057;-79
2022/08/26 10:59:57;;;;;;;8.80;4.53;;;;;;;27.61;63.09;101052.25;6223751;28;20056;-80
2022/08/26 11:03:05;;;;;;;11.50;3.33;;;;;;;27.50;63.51;101042.78;6229529;28;20643;-79
2022/08/26 11:06:26;;;;;;;8.75;3.83;;;;;;;27.37;63.54;101038.00;6247775;28;20053;-80
2022/08/26 11:09:44;;;;;;;13.88;4.88;;;;;;;27.31;64.15;101036.06;6247911;28;20049;-78
2022/08/26 11:12:54;;;;;;;5.65;3.75;;;;;;;27.20;65.57;101039.19;6248903;28;20501;-80
2022/08/26 11:15:58;;;;;;;6.32;3.53;;;;;;;27.08;64.76;101036.09;6248139;28;20390;-80
2022/08/26 11:19:00;;;;;;;7.70;3.72;;;;;;;27.00;65.70;101036.16;6247855;28;20103;-79
2022/08/26 11:22:06;;;;;;;7.15;3.78;;;;;;;26.97;65.75;101034.63;6247110;28;20049;-79
2022/08/26 11:25:13;;;;;;;9.00;4.75;;;;;;;26.92;66.44;101034.34;6247486;28;20493;-80
2022/08/26 11:28:35;;;;;;;5.20;3.75;;;;;;;26.86;66.43;101034.25;6247760;28;20053;-80
2022/08/26 11:31:54;;;;;;;8.68;3.97;;;;;;;26.77;66.57;101028.91;6247595;28;20045;-79
2022/08/26 11:34:58;;;;;;;5.60;3.53;;;;;;;26.76;67.06;101032.63;6247947;28;20060;-80
2022/08/26 11:38:03;;;;;;;8.13;4.22;;;;;;;26.76;66.71;101024.56;6248130;28;20107;-79
2022/08/26 11:41:10;;;;;;;10.40;4.47;;;;;;;26.74;66.67;101023.88;6247389;28;20460;-81
2022/08/26 11:44:18;;;;;;;8.00;4.25;;;;;;;26.77;66.37;101015.44;6247062;28;20054;-79
2022/08/26 11:47:26;;;;;;;9.27;4.50;;;;;;;26.84;65.92;101020.09;6245785;28;20053;-80
2022/08/26 11:50:29;;;;;;;9.18;3.95;;;;;;;26.90;65.61;101009.44;6227617;28;20046;-79
2022/08/26 11:53:35;;;;;;;8.27;3.83;;;;;;;26.98;64.83;101019.28;6222979;28;20041;-79
2022/08/26 11:56:39;;;;;;;7.85;4.63;;;;;;;27.01;64.90;101010.84;6223291;28;20490;-79
2022/08/26 11:59:42;;;;;;;7.53;3.20;;;;;;;27.09;64.65;101009.97;6231326;28;20049;-79
2022/08/26 12:02:43;;;;;;;6.82;3.33;;;;;;;27.16;63.99;101011.75;6235902;28;20525;-79
2022/08/26 12:05:48;;;;;;;8.95;3.90;;;;;;;27.39;63.20;101010.81;6232137;28;20053;-78
2022/08/26 12:08:53;;;;;;;6.82;3.85;;;;;;;27.84;60.56;101008.97;6225309;28;20046;-80
2022/08/26 12:12:11;;;;;;;12.55;3.45;;;;;;;28.22;58.45;100996.13;6223399;28;20046;-78
2022/08/26 12:15:16;;;;;;;6.28;3.95;;;;;;;28.53;57.84;100976.94;6222819;28;20046;-79
2022/08/26 12:18:19;;;;;;;6.75;3.88;;;;;;;28.52;57.88;100970.69;6222786;28;20061;-78
2022/08/26 12:21:23;;;;;;;10.25;3.90;;;;;;;28.42;58.76;100969.34;6222817;28;20064;-79
2022/08/26 12:24:26;;;;;;;10.60;3.60;;;;;;;28.24;59.08;100962.47;6222173;28;20465;-78
2022/08/26 12:27:30;;;;;;;5.15;3.30;;;;;;;28.08;59.54;100960.03;6222998;28;20054;-78
2022/08/26 12:30:31;;;;;;;6.07;3.78;;;;;;;28.00;59.65;100954.72;6222296;28;20058;-79
2022/08/26 12:33:34;;;;;;;7.95;3.45;;;;;;;27.97;59.89;100953.25;6231124;28;20461;-79
2022/08/26 12:36:41;;;;;;;8.40;3.83;;;;;;;27.92;59.61;100952.16;6230312;28;20050;-78
2022/08/26 12:39:44;;;;;;;6.70;3.88;;;;;;;27.80;59.58;100949.13;6235205;28;20439;-78
2022/08/26 12:42:46;;;;;;;5.68;3.10;;;;;;;27.69;58.79;100946.84;6238866;28;20050;-78
2022/08/26 12:45:56;;;;;;;10.00;3.97;;;;;;;27.54;59.51;100945.00;6231840;28;20463;-78
2022/08/26 12:49:00;;;;;;;6.10;4.00;;;;;;;27.47;60.35;100952.19;6234630;28;20049;-78
2022/08/26 12:52:01;;;;;;;6.75;3.42;;;;;;;27.42;59.01;100940.28;6231115;28;20045;-78
2022/08/26 12:55:06;;;;;;;9.50;3.15;;;;;;;27.35;59.73;100931.28;6227873;28;20519;-78
2022/08/26 12:58:25;;;;;;;11.00;3.03;;;;;;;27.24;60.83;100921.75;6238683;28;20053;-79
2022/08/26 13:01:26;;;;;;;5.38;3.92;;;;;;;27.15;61.22;100920.19;6236592;28;20052;-78
2022/08/26 13:04:33;;;;;;;7.63;3.88;;;;;;;27.08;60.75;100936.25;6243699;28;20424;-78
2022/08/26 13:07:35;;;;;;;5.85;3.38;;;;;;;27.02;61.05;100951.28;6252710;28;20053;-79
2022/08/26 13:10:40;;;;;;;7.68;3.60;;;;;;;27.00;61.15;100958.75;6237720;28;20498;-78
2022/08/26 13:13:42;;;;;;;9.77;3.63;;;;;;;26.93;61.63;100956.97;6228096;28;20049;-78
2022/08/26 13:16:44;;;;;;;11.07;3.58;;;;;;;26.89;62.04;100958.34;6226742;28;20141;-78
2022/08/26 13:19:46;;;;;;;6.88;3.25;;;;;;;26.81;61.22;100970.91;6226945;28;20085;-78
2022/08/26 13:22:48;;;;;;;5.88;3.17;;;;;;;26.77;61.55;100961.50;6233134;28;20049;-78
2022/08/26 13:25:52;;;;;;;7.70;3.25;;;;;;;26.73;61.85;100959.34;6233316;28;20061;-79
2022/08/26 13:28:53;;;;;;;10.75;3.47;;;;;;;26.65;61.95;100975.59;6226718;28;20391;-78
2022/08/26 13:31:54;;;;;;;5.43;3.50;;;;;;;26.55;63.06;100992.84;6227967;28;20050;-79
2022/08/26 13:34:57;;;;;;;5.45;3.58;;;;;;;26.18;65.57;100982.81;6235063;28;20112;-79
2022/08/26 13:37:58;;;;;;;6.10;3.35;;;;;;;25.98;68.12;100984.25;6235184;28;20057;-79
2022/08/26 13:41:02;;;;;;;6.32;3.65;;;;;;;25.80;69.78;101000.69;6233644;28;20429;-78
2022/08/26 13:44:04;;;;;;;6.85;3.50;;;;;;;25.48;71.77;101001.59;6242176;28;20042;-78
2022/08/26 13:47:07;;;;;;;7.35;4.18;;;;;;;25.46;72.55;100995.56;6243681;28;20536;-78
2022/08/26 13:50:08;;;;;;;8.18;2.75;;;;;;;25.29;73.45;100992.06;6243022;28;20172;-79
2022/08/26 13:53:10;;;;;;;7.03;3.78;;;;;;;25.28;73.40;100993.94;6234322;28;20046;-78
2022/08/26 13:56:12;;;;;;;7.50;3.47;;;;;;;25.19;73.26;100994.94;6233944;28;20120;-78
2022/08/26 13:59:14;;;;;;;8.52;3.47;;;;;;;24.95;74.00;100992.28;6230699;28;20057;-79
2022/08/26 14:02:15;;;;;;;6.20;3.33;;;;;;;24.92;73.87;100993.44;6235272;28;20069;-78
2022/08/26 14:05:16;;;;;;;5.50;3.45;;;;;;;24.91;73.53;100993.63;6232400;28;20497;-79
2022/08/26 14:08:18;;;;;;;7.50;3.13;;;;;;;24.87;72.83;100985.06;6238681;28;20053;-78
2022/08/26 14:11:21;;;;;;;4.70;3.20;;;;;;;24.90;72.93;100967.75;6230853;28;20180;-78
2022/08/26 14:14:23;;;;;;;6.57;3.40;;;;;;;24.94;72.03;100966.41;6229976;28;20056;-79